createdAt,value
2016-04-01T00:00:34.097Z,0
2016-04-01T00:01:34.115Z,0
2016-04-01T00:02:36.415Z,0
2016-04-01T00:03:46.870Z,0
2016-04-01T00:04:40.405Z,0
2016-04-01T00:05:53.438Z,0
2016-04-01T00:06:34.785Z,0
2016-04-01T00:08:43.947Z,0
2016-04-01T00:08:56.838Z,0
2016-04-01T00:09:56.527Z,0
2016-04-01T00:10:56.577Z,0
2016-04-01T00:12:02.814Z,0
2016-04-01T00:13:02.849Z,0
2016-04-01T00:14:09.304Z,0
2016-04-01T00:15:15.947Z,0
2016-04-01T00:16:15.809Z,0
2016-04-01T00:17:15.875Z,0
2016-04-01T00:17:56.690Z,0
2016-04-01T00:19:22.317Z,0
2016-04-01T00:19:56.696Z,0
2016-04-01T00:21:28.012Z,0
2016-04-01T00:21:56.809Z,0
2016-04-01T00:22:56.766Z,0
2016-04-01T00:24:03.003Z,0
2016-04-01T00:24:56.724Z,0
2016-04-01T00:26:09.587Z,0
2016-04-01T00:26:57.386Z,0
2016-04-01T00:28:22.451Z,0
2016-04-01T00:29:03.094Z,0
2016-04-01T00:30:59.459Z,0
2016-04-01T00:31:12.022Z,0
2016-04-01T00:32:12.024Z,0
2016-04-01T00:33:24.653Z,0
2016-04-01T00:34:24.889Z,0
2016-04-01T00:35:24.844Z,0
2016-04-01T00:36:24.864Z,0
2016-04-01T00:37:31.368Z,0
2016-04-01T00:38:31.309Z,0
2016-04-01T00:39:12.122Z,0
2016-04-01T00:40:31.361Z,0
2016-04-01T00:41:13.580Z,0
2016-04-01T00:42:12.177Z,0
2016-04-01T00:43:31.447Z,0
2016-04-01T00:44:12.197Z,0
2016-04-01T00:45:31.437Z,0
2016-04-01T00:46:12.218Z,0
2016-04-01T00:47:12.268Z,0
2016-04-01T00:48:12.270Z,0
2016-04-01T00:49:25.101Z,0
2016-04-01T00:50:25.838Z,0
2016-04-01T00:51:25.076Z,0
2016-04-01T00:53:34.473Z,0
2016-04-01T00:54:15.286Z,0
2016-04-01T00:55:15.290Z,0
2016-04-01T00:56:15.308Z,0
2016-04-01T00:57:15.310Z,0
2016-04-01T00:58:15.360Z,0
2016-04-01T00:59:28.100Z,0
2016-04-01T01:00:16.787Z,0
2016-04-01T01:01:28.152Z,0
2016-04-01T01:02:15.402Z,0
2016-04-01T01:03:15.404Z,0
2016-04-01T01:04:28.270Z,0
2016-04-01T01:05:16.067Z,0
2016-04-01T01:06:28.212Z,0
2016-04-01T01:07:16.072Z,0
2016-04-01T01:08:15.589Z,0
2016-04-01T01:09:15.499Z,0
2016-04-01T01:10:21.877Z,0
2016-04-01T01:11:15.536Z,0
2016-04-01T01:12:34.744Z,0
2016-04-01T01:13:15.572Z,0
2016-04-01T01:14:15.622Z,0
2016-04-01T01:15:15.593Z,0
2016-04-01T01:16:15.611Z,0
2016-04-01T01:17:15.614Z,0
2016-04-01T01:18:22.085Z,0
2016-04-01T01:19:16.369Z,0
2016-04-01T01:20:21.982Z,0
2016-04-01T01:21:15.796Z,0
2016-04-01T01:22:15.690Z,0
2016-04-01T01:23:21.958Z,0
2016-04-01T01:24:16.304Z,0
2016-04-01T01:25:28.513Z,0
2016-04-01T01:26:15.748Z,0
2016-04-01T01:27:34.815Z,0
2016-04-01T01:28:16.409Z,0
2016-04-01T01:29:15.787Z,0
2016-04-01T01:30:28.573Z,0
2016-04-01T01:31:15.839Z,0
2016-04-01T01:32:35.048Z,0
2016-04-01T01:33:15.876Z,0
2016-04-01T01:34:35.131Z,0
2016-04-01T01:35:15.881Z,0
2016-04-01T01:36:15.899Z,0
2016-04-01T01:37:16.105Z,0
2016-04-01T01:38:16.139Z,0
2016-04-01T01:39:16.001Z,0
2016-04-01T01:40:28.710Z,0
2016-04-01T01:41:28.728Z,0
2016-04-01T01:42:28.761Z,0
2016-04-01T01:43:35.218Z,0
2016-04-01T01:44:35.220Z,0
2016-04-01T01:45:41.802Z,0
2016-04-01T01:46:16.067Z,0
2016-04-01T01:47:47.541Z,0
2016-04-01T01:48:16.088Z,0
2016-04-01T01:49:16.107Z,0
2016-04-01T01:50:16.109Z,0
2016-04-01T01:51:22.393Z,0
2016-04-01T01:52:22.411Z,0
2016-04-01T01:53:35.338Z,0
2016-04-01T01:54:35.388Z,0
2016-04-01T01:55:16.201Z,0
2016-04-01T01:56:16.204Z,0
2016-04-01T01:57:17.628Z,0
2016-04-01T01:58:28.962Z,0
2016-04-01T01:59:16.259Z,0
2016-04-01T02:00:29.029Z,0
2016-04-01T02:01:16.248Z,0
2016-04-01T02:02:35.628Z,0
2016-04-01T02:03:29.053Z,0
2016-04-01T02:04:42.039Z,0
2016-04-01T02:05:28.399Z,0
2016-04-01T02:06:16.370Z,0
2016-04-01T02:07:16.389Z,0
2016-04-01T02:08:17.475Z,0
2016-04-01T02:09:29.136Z,0
2016-04-01T02:10:16.402Z,0
2016-04-01T02:11:16.405Z,0
2016-04-01T02:12:17.033Z,0
2016-04-01T02:13:17.691Z,0
2016-04-01T02:14:17.866Z,0
2016-04-01T02:15:16.618Z,0
2016-04-01T02:16:17.230Z,0
2016-04-01T02:17:29.268Z,0
2016-04-01T02:18:29.036Z,0
2016-04-01T02:19:29.351Z,0
2016-04-01T02:20:29.868Z,0
2016-04-01T02:21:16.618Z,0
2016-04-01T02:22:42.296Z,0
2016-04-01T02:23:17.484Z,0
2016-04-01T02:24:47.926Z,0
2016-04-01T02:25:16.645Z,0
2016-04-01T02:26:16.632Z,0
2016-04-01T02:27:16.651Z,0
2016-04-01T02:28:16.654Z,0
2016-04-01T02:29:16.657Z,0
2016-04-01T02:30:22.940Z,0
2016-04-01T02:31:29.445Z,0
2016-04-01T02:32:29.495Z,0
2016-04-01T02:33:42.481Z,0
2016-04-01T02:34:17.075Z,0
2016-04-01T02:35:42.425Z,0
2016-04-01T02:36:16.847Z,0
2016-04-01T02:37:23.162Z,0
2016-04-01T02:38:16.853Z,0
2016-04-01T02:39:29.545Z,0
2016-04-01T02:40:17.014Z,0
2016-04-01T02:41:36.050Z,0
2016-04-01T02:42:17.503Z,0
2016-04-01T02:43:42.665Z,0
2016-04-01T02:44:16.868Z,0
2016-04-01T02:45:17.011Z,0
2016-04-01T02:46:23.185Z,0
2016-04-01T02:47:23.188Z,0
2016-04-01T02:48:29.787Z,0
2016-04-01T02:49:18.365Z,0
2016-04-01T02:51:52.171Z,0
2016-04-01T02:52:52.190Z,0
2016-04-01T02:53:57.849Z,0
2016-04-01T02:54:26.568Z,0
2016-04-01T02:55:27.273Z,0
2016-04-01T02:56:32.951Z,0
2016-04-01T02:57:26.607Z,0
2016-04-01T02:58:39.346Z,0
2016-04-01T02:59:39.459Z,0
2016-04-01T03:00:26.662Z,0
2016-04-01T03:01:26.695Z,0
2016-04-01T03:02:26.651Z,0
2016-04-01T03:03:26.529Z,0
2016-04-01T03:04:39.597Z,0
2016-04-01T03:05:32.958Z,0
2016-04-01T03:06:26.708Z,0
2016-04-01T03:07:26.743Z,0
2016-04-01T03:08:27.355Z,0
2016-04-01T03:09:33.658Z,0
2016-04-01T03:10:26.783Z,0
2016-04-01T03:11:52.475Z,0
2016-04-01T03:12:26.819Z,0
2016-04-01T03:14:23.793Z,0
2016-04-01T03:14:36.514Z,0
2016-04-01T03:15:36.344Z,0
2016-04-01T03:16:36.441Z,0
2016-04-01T03:17:36.412Z,0
2016-04-01T03:18:49.181Z,0
2016-04-01T03:19:36.418Z,0
2016-04-01T03:20:36.499Z,0
2016-04-01T03:21:42.721Z,0
2016-04-01T03:22:36.551Z,0
2016-04-01T03:23:49.226Z,0
2016-04-01T03:24:49.244Z,0
2016-04-01T03:25:36.496Z,0
2016-04-01T03:26:49.265Z,0
2016-04-01T03:27:36.549Z,0
2016-04-01T03:28:55.740Z,0
2016-04-01T03:29:36.601Z,0
2016-04-01T03:30:36.573Z,0
2016-04-01T03:31:37.998Z,0
2016-04-01T03:32:37.329Z,0
2016-04-01T03:33:36.049Z,0
2016-04-01T03:34:37.614Z,0
2016-04-01T03:35:49.477Z,0
2016-04-01T03:36:49.386Z,0
2016-04-01T03:38:02.358Z,0
2016-04-01T03:38:36.688Z,0
2016-04-01T03:39:36.722Z,0
2016-04-01T03:40:36.709Z,0
2016-04-01T03:41:49.446Z,0
2016-04-01T03:42:42.996Z,0
2016-04-01T03:43:56.014Z,0
2016-04-01T03:44:36.752Z,0
2016-04-01T03:46:33.741Z,0
2016-04-01T03:46:46.303Z,0
2016-04-01T03:47:46.338Z,0
2016-04-01T03:48:46.324Z,0
2016-04-01T03:49:52.577Z,0
2016-04-01T03:50:46.330Z,0
2016-04-01T03:51:52.598Z,0
2016-04-01T03:52:52.648Z,0
2016-04-01T03:53:52.682Z,0
2016-04-01T03:54:46.419Z,0
2016-04-01T03:55:52.781Z,0
2016-04-01T03:56:52.673Z,0
2016-04-01T03:58:05.629Z,0
2016-04-01T03:59:36.869Z,0
2016-04-01T04:00:20.712Z,0
2016-04-01T04:01:39.968Z,0
2016-04-01T04:02:24.062Z,0
2016-04-01T04:02:52.518Z,0
2016-04-01T04:04:49.664Z,0
2016-04-01T04:05:02.242Z,0
2016-04-01T04:07:17.545Z,0
2016-04-01T04:09:14.566Z,0
2016-04-01T04:09:27.237Z,0
2016-04-01T04:10:46.399Z,0
2016-04-01T04:11:27.602Z,0
2016-04-01T04:13:17.873Z,0
2016-04-01T04:13:33.452Z,0
2016-04-01T04:14:49.753Z,0
2016-04-01T04:15:36.741Z,0
2016-04-01T04:16:57.572Z,0
2016-04-01T04:17:43.230Z,0
2016-04-01T04:19:49.721Z,0
2016-04-01T04:20:30.517Z,0
2016-04-01T04:21:56.210Z,0
2016-04-01T04:22:43.291Z,0
2016-04-01T04:24:01.888Z,0
2016-04-01T04:24:56.249Z,0
2016-04-01T04:25:30.562Z,0
2016-04-01T04:27:01.911Z,0
2016-04-01T04:27:36.914Z,0
2016-04-01T04:28:30.618Z,0
2016-04-01T04:29:43.388Z,0
2016-04-01T04:30:36.922Z,0
2016-04-01T04:31:32.204Z,0
2016-04-01T04:32:43.412Z,0
2016-04-01T04:34:46.901Z,0
2016-04-01T04:34:59.651Z,0
2016-04-01T04:35:59.498Z,0
2016-04-01T04:37:12.344Z,0
2016-04-01T04:37:59.784Z,0
2016-04-01T04:39:18.772Z,0
2016-04-01T04:39:59.539Z,0
2016-04-01T04:41:51.467Z,0
2016-04-01T04:42:29.498Z,0
2016-04-01T04:43:23.236Z,0
2016-04-01T04:44:29.739Z,0
2016-04-01T04:45:29.850Z,0
2016-04-01T04:46:29.728Z,0
2016-04-01T04:47:35.467Z,5
2016-04-01T04:48:04.139Z,5
2016-04-01T04:49:04.127Z,5
2016-04-01T04:50:04.144Z,5
2016-04-01T04:51:04.147Z,5
2016-04-01T04:52:16.869Z,5
2016-04-01T04:53:16.871Z,5
2016-04-01T04:54:23.390Z,10
2016-04-01T04:55:29.861Z,10
2016-04-01T04:57:32.492Z,10
2016-04-01T04:57:45.073Z,10
2016-04-01T04:58:45.168Z,15
2016-04-01T04:59:57.829Z,15
2016-04-01T05:00:57.924Z,15
2016-04-01T05:01:45.083Z,20
2016-04-01T05:03:42.104Z,20
2016-04-01T05:03:54.682Z,20
2016-04-01T05:06:30.031Z,25
2016-04-01T05:07:04.362Z,25
2016-04-01T05:08:04.380Z,30
2016-04-01T05:09:04.398Z,30
2016-04-01T05:10:17.120Z,35
2016-04-01T05:11:17.170Z,35
2016-04-01T05:12:04.406Z,35
2016-04-01T05:14:01.412Z,40
2016-04-01T05:14:39.711Z,40
2016-04-01T05:15:20.258Z,45
2016-04-01T05:17:11.030Z,45
2016-04-01T05:17:23.624Z,45
2016-04-01T05:18:23.610Z,50
2016-04-01T05:19:29.925Z,50
2016-04-01T05:20:29.928Z,55
2016-04-01T05:21:43.934Z,55
2016-04-01T05:22:23.669Z,55
2016-04-01T05:23:49.408Z,60
2016-04-01T05:24:23.674Z,60
2016-04-01T05:26:26.305Z,65
2016-04-01T05:27:04.541Z,65
2016-04-01T05:27:38.887Z,65
2016-04-01T05:28:38.921Z,70
2016-04-01T05:29:38.893Z,70
2016-04-01T05:30:38.912Z,75
2016-04-01T05:31:39.539Z,75
2016-04-01T05:32:38.995Z,75
2016-04-01T05:33:38.888Z,80
2016-04-01T05:34:38.968Z,80
2016-04-01T05:35:38.987Z,85
2016-04-01T05:36:39.037Z,85
2016-04-01T05:37:39.634Z,85
2016-04-01T05:38:39.012Z,90
2016-04-01T05:39:39.654Z,90
2016-04-01T05:40:39.063Z,95
2016-04-01T05:41:39.160Z,95
2016-04-01T05:42:39.053Z,95
2016-04-01T05:43:39.181Z,100
2016-04-01T05:44:51.839Z,100
2016-04-01T05:45:39.170Z,105
2016-04-01T05:46:39.142Z,105
2016-04-01T05:47:39.879Z,105
2016-04-01T05:48:51.881Z,105
2016-04-01T05:49:51.743Z,110
2016-04-01T05:51:36.152Z,120
2016-04-01T05:52:14.405Z,125
2016-04-01T05:53:07.971Z,135
2016-04-01T05:54:20.052Z,150
2016-04-01T05:54:48.757Z,160
2016-04-01T05:55:48.807Z,215
2016-04-01T05:56:48.810Z,390
2016-04-01T05:57:48.812Z,535
2016-04-01T05:58:48.815Z,565
2016-04-01T05:59:48.818Z,585
2016-04-01T06:00:48.960Z,600
2016-04-01T06:01:48.839Z,615
2016-04-01T06:02:48.950Z,630
2016-04-01T06:03:48.937Z,645
2016-04-01T06:04:48.893Z,650
2016-04-01T06:05:48.911Z,660
2016-04-01T06:06:48.993Z,675
2016-04-01T06:07:48.811Z,685
2016-04-01T06:08:48.955Z,690
2016-04-01T06:09:48.958Z,700
2016-04-01T06:10:49.008Z,715
2016-04-01T06:11:48.979Z,730
2016-04-01T06:12:49.044Z,740
2016-04-01T06:13:48.906Z,750
2016-04-01T06:14:49.081Z,750
2016-04-01T06:15:48.958Z,760
2016-04-01T06:16:49.118Z,770
2016-04-01T06:17:54.604Z,785
2016-04-01T06:18:49.154Z,790
2016-04-01T06:19:49.188Z,800
2016-04-01T06:20:49.190Z,795
2016-04-01T06:21:49.208Z,800
2016-04-01T06:22:49.195Z,805
2016-04-01T06:23:49.230Z,820
2016-04-01T06:25:01.998Z,830
2016-04-01T06:25:49.656Z,845
2016-04-01T06:26:49.347Z,855
2016-04-01T06:27:49.350Z,870
2016-04-01T06:28:49.493Z,895
2016-04-01T06:30:02.120Z,900
2016-04-01T06:31:02.170Z,900
2016-04-01T06:31:49.376Z,915
2016-04-01T06:32:49.457Z,925
2016-04-01T06:34:02.179Z,940
2016-04-01T06:34:49.462Z,925
2016-04-01T06:37:18.234Z,970
2016-04-01T06:38:50.223Z,980
2016-04-01T06:39:28.380Z,975
2016-04-01T06:40:02.820Z,990
2016-04-01T06:41:02.853Z,985
2016-04-01T06:42:03.044Z,990
2016-04-01T06:43:03.062Z,1005
2016-04-01T06:44:03.065Z,990
2016-04-01T06:45:03.130Z,1000
2016-04-01T06:46:03.054Z,1000
2016-04-01T06:47:03.057Z,1015
2016-04-01T06:48:03.232Z,1030
2016-04-01T06:49:03.032Z,1030
2016-04-01T06:50:03.144Z,1030
2016-04-01T06:51:03.162Z,1045
2016-04-01T06:52:03.274Z,1045
2016-04-01T06:53:03.168Z,1060
2016-04-01T06:54:03.248Z,1085
2016-04-01T06:55:03.141Z,1070
2016-04-01T06:56:03.238Z,1075
2016-04-01T06:57:03.225Z,1075
2016-04-01T06:58:16.009Z,1090
2016-04-01T06:59:03.276Z,1100
2016-04-01T07:00:16.045Z,1085
2016-04-01T07:01:03.345Z,1085
2016-04-01T07:02:03.348Z,1115
2016-04-01T07:03:03.366Z,1105
2016-04-01T07:04:03.431Z,1095
2016-04-01T07:05:16.215Z,1110
2016-04-01T07:06:03.468Z,1125
2016-04-01T07:07:22.705Z,1135
2016-04-01T07:08:03.504Z,1140
2016-04-01T07:09:03.569Z,1155
2016-04-01T07:10:03.541Z,1220
2016-04-01T07:11:03.606Z,1200
2016-04-01T07:12:03.687Z,1160
2016-04-01T07:13:03.658Z,1145
2016-04-01T07:14:03.911Z,1150
2016-04-01T07:15:03.710Z,1165
2016-04-01T07:16:03.807Z,1170
2016-04-01T07:17:03.794Z,1175
2016-04-01T07:18:03.813Z,1200
2016-04-01T07:19:03.800Z,1185
2016-04-01T07:20:03.803Z,1150
2016-04-01T07:21:04.008Z,1120
2016-04-01T07:22:03.901Z,1060
2016-04-01T07:23:04.013Z,1090
2016-04-01T07:24:03.955Z,1095
2016-04-01T07:25:04.206Z,1120
2016-04-01T07:26:16.756Z,1125
2016-04-01T07:27:03.993Z,1120
2016-04-01T07:28:04.043Z,1200
2016-04-01T07:29:03.920Z,1265
2016-04-01T07:30:04.080Z,1235
2016-04-01T07:31:04.145Z,1210
2016-04-01T07:32:04.131Z,1085
2016-04-01T07:33:04.151Z,1080
2016-04-01T07:34:16.965Z,1120
2016-04-01T07:35:04.187Z,1170
2016-04-01T07:36:17.002Z,1245
2016-04-01T07:37:04.224Z,1265
2016-04-01T07:38:04.273Z,1235
2016-04-01T07:39:05.729Z,1240
2016-04-01T07:40:04.373Z,1195
2016-04-01T07:41:04.328Z,1200
2016-04-01T07:42:04.362Z,1205
2016-04-01T07:43:04.381Z,1135
2016-04-01T07:44:05.104Z,740
2016-04-01T07:45:04.403Z,310
2016-04-01T07:46:04.438Z,240
2016-04-01T07:47:04.409Z,225
2016-04-01T07:48:04.443Z,220
2016-04-01T07:49:04.565Z,215
2016-04-01T07:50:04.452Z,215
2016-04-01T07:51:04.496Z,215
2016-04-01T07:52:17.229Z,210
2016-04-01T07:53:04.539Z,210
2016-04-01T07:54:04.554Z,205
2016-04-01T07:55:10.805Z,205
2016-04-01T07:56:04.540Z,205
2016-04-01T07:57:04.635Z,205
2016-04-01T07:58:04.652Z,205
2016-04-01T07:59:04.482Z,205
2016-04-01T08:00:04.765Z,205
2016-04-01T08:01:04.704Z,205
2016-04-01T08:02:10.956Z,205
2016-04-01T08:03:04.693Z,205
2016-04-01T08:04:04.710Z,205
2016-04-01T08:05:04.837Z,205
2016-04-01T08:06:04.746Z,205
2016-04-01T08:07:04.764Z,205
2016-04-01T08:08:04.782Z,205
2016-04-01T08:09:04.832Z,205
2016-04-01T08:10:05.178Z,205
2016-04-01T08:11:04.884Z,205
2016-04-01T08:12:04.871Z,205
2016-04-01T08:13:05.093Z,205
2016-04-01T08:14:04.954Z,205
2016-04-01T08:15:05.082Z,205
2016-04-01T08:16:17.726Z,205
2016-04-01T08:17:04.947Z,205
2016-04-01T08:18:05.012Z,205
2016-04-01T08:19:04.984Z,205
2016-04-01T08:20:05.001Z,205
2016-04-01T08:21:05.051Z,205
2016-04-01T08:22:05.069Z,205
2016-04-01T08:23:05.041Z,205
2016-04-01T08:24:05.075Z,205
2016-04-01T08:25:05.094Z,210
2016-04-01T08:26:05.283Z,210
2016-04-01T08:27:05.129Z,210
2016-04-01T08:28:05.241Z,210
2016-04-01T08:29:05.136Z,210
2016-04-01T08:30:05.169Z,210
2016-04-01T08:31:05.188Z,210
2016-04-01T08:32:05.191Z,210
2016-04-01T08:33:05.240Z,210
2016-04-01T08:34:05.243Z,210
2016-04-01T08:35:05.871Z,210
2016-04-01T08:36:05.279Z,210
2016-04-01T08:37:05.344Z,200
2016-04-01T08:38:05.300Z,205
2016-04-01T08:39:05.318Z,205
2016-04-01T08:40:05.321Z,205
2016-04-01T08:41:18.121Z,205
2016-04-01T08:42:05.373Z,205
2016-04-01T08:44:08.332Z,205
2016-04-01T08:45:08.491Z,205
2016-04-01T08:46:08.540Z,205
2016-04-01T08:47:09.137Z,205
2016-04-01T08:48:08.562Z,200
2016-04-01T08:49:08.579Z,200
2016-04-01T08:50:08.739Z,200
2016-04-01T08:51:08.617Z,200
2016-04-01T08:52:21.463Z,200
2016-04-01T08:53:08.653Z,200
2016-04-01T08:54:34.343Z,200
2016-04-01T08:55:08.690Z,200
2016-04-01T08:56:08.677Z,200
2016-04-01T08:57:08.711Z,200
2016-04-01T08:58:08.713Z,200
2016-04-01T08:59:21.481Z,200
2016-04-01T09:00:21.516Z,200
2016-04-01T09:01:08.971Z,200
2016-04-01T09:02:08.849Z,200
2016-04-01T09:03:08.899Z,200
2016-04-01T09:04:08.869Z,200
2016-04-01T09:05:08.982Z,200
2016-04-01T09:06:08.860Z,200
2016-04-01T09:07:09.488Z,200
2016-04-01T09:08:08.896Z,200
2016-04-01T09:09:08.946Z,200
2016-04-01T09:10:08.933Z,200
2016-04-01T09:11:08.951Z,200
2016-04-01T09:12:09.016Z,200
2016-04-01T09:13:09.004Z,200
2016-04-01T09:14:09.006Z,200
2016-04-01T09:15:09.024Z,200
2016-04-01T09:16:09.059Z,200
2016-04-01T09:17:09.062Z,200
2016-04-01T09:18:09.126Z,200
2016-04-01T09:19:09.082Z,200
2016-04-01T09:20:09.226Z,195
2016-04-01T09:21:09.150Z,195
2016-04-01T09:22:09.184Z,195
2016-04-01T09:23:09.155Z,195
2016-04-01T09:24:09.205Z,195
2016-04-01T09:25:09.270Z,195
2016-04-01T09:26:09.194Z,195
2016-04-01T09:27:09.244Z,195
2016-04-01T09:28:09.528Z,195
2016-04-01T09:29:09.390Z,195
2016-04-01T09:30:09.377Z,195
2016-04-01T09:31:09.536Z,195
2016-04-01T09:32:09.524Z,195
2016-04-01T09:33:09.620Z,195
2016-04-01T09:34:09.592Z,195
2016-04-01T09:35:09.594Z,195
2016-04-01T09:36:09.691Z,195
2016-04-01T09:37:09.522Z,195
2016-04-01T09:38:09.727Z,195
2016-04-01T09:39:09.621Z,195
2016-04-01T09:40:09.451Z,195
2016-04-01T09:41:09.501Z,195
2016-04-01T09:42:09.894Z,195
2016-04-01T09:43:09.691Z,195
2016-04-01T09:44:09.554Z,195
2016-04-01T09:45:09.790Z,195
2016-04-01T09:46:09.918Z,195
2016-04-01T09:47:09.655Z,195
2016-04-01T09:48:10.143Z,195
2016-04-01T09:49:09.724Z,195
2016-04-01T09:50:10.054Z,195
2016-04-01T09:51:09.682Z,195
2016-04-01T09:52:09.668Z,195
2016-04-01T09:53:10.328Z,195
2016-04-01T09:54:09.923Z,195
2016-04-01T09:55:16.304Z,195
2016-04-01T09:56:10.211Z,195
2016-04-01T09:57:22.981Z,195
2016-04-01T09:58:10.200Z,195
2016-04-01T09:59:10.031Z,195
2016-04-01T10:00:10.378Z,195
2016-04-01T10:01:09.927Z,195
2016-04-01T10:02:22.541Z,195
2016-04-01T10:03:10.291Z,195
2016-04-01T10:04:10.107Z,195
2016-04-01T10:05:16.487Z,190
2016-04-01T10:06:10.268Z,195
2016-04-01T10:07:10.161Z,195
2016-04-01T10:08:10.274Z,195
2016-04-01T10:09:16.514Z,195
2016-04-01T10:10:10.139Z,195
2016-04-01T10:11:10.236Z,195
2016-04-01T10:12:10.394Z,195
2016-04-01T10:13:10.132Z,190
2016-04-01T10:14:10.384Z,190
2016-04-01T10:15:10.402Z,190
2016-04-01T10:16:10.467Z,195
2016-04-01T10:17:10.454Z,195
2016-04-01T10:18:10.316Z,190
2016-04-01T10:19:10.163Z,190
2016-04-01T10:20:10.244Z,190
2016-04-01T10:21:10.434Z,190
2016-04-01T10:22:10.156Z,190
2016-04-01T10:23:10.283Z,190
2016-04-01T10:24:10.192Z,190
2016-04-01T10:25:10.523Z,190
2016-04-01T10:26:10.212Z,190
2016-04-01T10:27:23.014Z,190
2016-04-01T10:28:16.565Z,190
2016-04-01T10:29:10.393Z,195
2016-04-01T10:30:10.333Z,195
2016-04-01T10:31:10.711Z,195
2016-04-01T10:32:10.525Z,195
2016-04-01T10:33:10.481Z,190
2016-04-01T10:34:10.422Z,190
2016-04-01T10:35:11.956Z,190
2016-04-01T10:36:10.475Z,190
2016-04-01T10:37:10.447Z,190
2016-04-01T10:38:10.449Z,190
2016-04-01T10:39:10.498Z,190
2016-04-01T10:40:10.532Z,190
2016-04-01T10:41:10.535Z,190
2016-04-01T10:42:10.552Z,190
2016-04-01T10:43:10.587Z,190
2016-04-01T10:44:10.605Z,190
2016-04-01T10:45:10.608Z,190
2016-04-01T10:46:12.064Z,190
2016-04-01T10:47:10.832Z,190
2016-04-01T10:48:10.663Z,190
2016-04-01T10:49:23.387Z,190
2016-04-01T10:50:10.652Z,190
2016-04-01T10:51:29.704Z,190
2016-04-01T10:52:10.736Z,190
2016-04-01T10:53:10.723Z,190
2016-04-01T10:54:23.495Z,190
2016-04-01T10:55:10.807Z,190
2016-04-01T10:56:29.984Z,190
2016-04-01T10:57:23.548Z,190
2016-04-01T10:58:10.970Z,190
2016-04-01T10:59:30.429Z,190
2016-04-01T11:00:23.776Z,190
2016-04-01T11:01:10.917Z,190
2016-04-01T11:02:23.687Z,190
2016-04-01T11:03:10.922Z,190
2016-04-01T11:04:11.097Z,190
2016-04-01T11:05:10.989Z,190
2016-04-01T11:06:11.039Z,190
2016-04-01T11:07:11.010Z,190
2016-04-01T11:08:11.022Z,190
2016-04-01T11:09:11.025Z,190
2016-04-01T11:10:11.059Z,195
2016-04-01T11:11:11.234Z,185
2016-04-01T11:12:11.095Z,185
2016-04-01T11:13:11.114Z,185
2016-04-01T11:14:23.853Z,190
2016-04-01T11:15:11.791Z,185
2016-04-01T11:17:02.031Z,185
2016-04-01T11:18:11.378Z,185
2016-04-01T11:18:49.849Z,185
2016-04-01T11:19:49.664Z,190
2016-04-01T11:20:50.526Z,185
2016-04-01T11:21:23.997Z,185
2016-04-01T11:22:24.156Z,185
2016-04-01T11:23:24.049Z,185
2016-04-01T11:24:24.083Z,185
2016-04-01T11:25:24.102Z,185
2016-04-01T11:26:24.105Z,185
2016-04-01T11:27:24.154Z,185
2016-04-01T11:28:24.173Z,185
2016-04-01T11:29:24.175Z,185
2016-04-01T11:30:24.381Z,185
2016-04-01T11:31:24.211Z,185
2016-04-01T11:32:24.229Z,185
2016-04-01T11:33:24.248Z,185
2016-04-01T11:34:37.064Z,185
2016-04-01T11:35:24.926Z,185
2016-04-01T11:36:24.319Z,185
2016-04-01T11:37:37.150Z,185
2016-04-01T11:38:37.058Z,185
2016-04-01T11:39:24.905Z,185
2016-04-01T11:40:24.392Z,185
2016-04-01T11:41:24.473Z,185
2016-04-01T11:42:24.461Z,185
2016-04-01T11:43:24.431Z,185
2016-04-01T11:44:24.887Z,185
2016-04-01T11:45:24.812Z,185
2016-04-01T11:46:24.924Z,185
2016-04-01T11:47:24.536Z,185
2016-04-01T11:48:27.835Z,185
2016-04-01T11:49:24.761Z,180
2016-04-01T11:50:43.747Z,180
2016-04-01T11:51:24.985Z,180
2016-04-01T11:52:24.738Z,180
2016-04-01T11:53:24.880Z,180
2016-04-01T11:54:24.883Z,180
2016-04-01T11:55:24.932Z,180
2016-04-01T11:56:24.748Z,180
2016-04-01T11:57:24.765Z,180
2016-04-01T11:58:24.799Z,180
2016-04-01T11:59:37.787Z,180
2016-04-01T12:00:25.274Z,180
2016-04-01T12:01:25.027Z,180
2016-04-01T12:02:25.014Z,180
2016-04-01T12:03:24.985Z,180
2016-04-01T12:04:24.862Z,180
2016-04-01T12:05:25.022Z,180
2016-04-01T12:06:24.978Z,180
2016-04-01T12:07:25.512Z,180
2016-04-01T12:08:24.968Z,180
2016-04-01T12:09:24.923Z,180
2016-04-01T12:10:26.364Z,180
2016-04-01T12:11:24.959Z,180
2016-04-01T12:12:24.978Z,180
2016-04-01T12:13:24.996Z,180
2016-04-01T12:14:25.014Z,175
2016-04-01T12:15:25.064Z,175
2016-04-01T12:16:25.239Z,180
2016-04-01T12:17:25.070Z,180
2016-04-01T12:18:27.386Z,180
2016-04-01T12:19:25.138Z,180
2016-04-01T12:20:25.203Z,180
2016-04-01T12:21:27.377Z,180
2016-04-01T12:22:25.427Z,180
2016-04-01T12:23:25.210Z,180
2016-04-01T12:24:37.948Z,180
2016-04-01T12:25:25.247Z,180
2016-04-01T12:26:44.468Z,180
2016-04-01T12:27:38.066Z,180
2016-04-01T12:28:50.959Z,180
2016-04-01T12:29:25.212Z,180
2016-04-01T12:30:25.307Z,180
2016-04-01T12:31:25.373Z,180
2016-04-01T12:32:25.376Z,180
2016-04-01T12:33:38.176Z,175
2016-04-01T12:34:25.429Z,175
2016-04-01T12:35:51.118Z,180
2016-04-01T12:36:31.777Z,180
2016-04-01T12:38:03.029Z,180
2016-04-01T12:38:25.470Z,180
2016-04-01T12:39:25.489Z,180
2016-04-01T12:40:38.397Z,180
2016-04-01T12:41:31.853Z,175
2016-04-01T12:42:44.933Z,180
2016-04-01T12:43:25.578Z,180
2016-04-01T12:44:44.923Z,180
2016-04-01T12:45:32.020Z,180
2016-04-01T12:46:51.350Z,180
2016-04-01T12:47:25.635Z,180
2016-04-01T12:48:25.684Z,180
2016-04-01T12:49:32.046Z,180
2016-04-01T12:50:25.705Z,180
2016-04-01T12:51:38.504Z,180
2016-04-01T12:52:26.288Z,180
2016-04-01T12:53:25.807Z,180
2016-04-01T12:54:25.779Z,180
2016-04-01T12:55:25.953Z,180
2016-04-01T12:56:25.847Z,180
2016-04-01T12:57:25.958Z,180
2016-04-01T12:58:25.883Z,180
2016-04-01T12:59:25.885Z,180
2016-04-01T13:00:25.905Z,180
2016-04-01T13:01:25.907Z,180
2016-04-01T13:02:25.941Z,180
2016-04-01T13:03:25.960Z,180
2016-04-01T13:04:25.993Z,180
2016-04-01T13:05:32.387Z,175
2016-04-01T13:06:26.107Z,180
2016-04-01T13:07:45.329Z,180
2016-04-01T13:08:26.066Z,185
2016-04-01T13:09:51.897Z,185
2016-04-01T13:10:26.165Z,185
2016-04-01T13:11:57.450Z,190
2016-04-01T13:12:26.156Z,185
2016-04-01T13:13:26.158Z,185
2016-04-01T13:14:26.208Z,185
2016-04-01T13:15:38.928Z,185
2016-04-01T13:16:26.259Z,190
2016-04-01T13:17:26.075Z,185
2016-04-01T13:18:26.249Z,185
2016-04-01T13:19:39.064Z,185
2016-04-01T13:20:26.301Z,180
2016-04-01T13:22:36.041Z,190
2016-04-01T13:23:19.732Z,190
2016-04-01T13:23:48.638Z,190
2016-04-01T13:24:48.655Z,190
2016-04-01T13:25:48.674Z,190
2016-04-01T13:26:48.677Z,190
2016-04-01T13:27:49.321Z,190
2016-04-01T13:28:48.949Z,190
2016-04-01T13:29:48.749Z,190
2016-04-01T13:30:48.813Z,195
2016-04-01T13:31:48.972Z,195
2016-04-01T13:32:48.802Z,195
2016-04-01T13:33:49.337Z,195
2016-04-01T13:34:49.057Z,195
2016-04-01T13:35:48.889Z,190
2016-04-01T13:37:01.720Z,190
2016-04-01T13:37:48.909Z,190
2016-04-01T13:38:48.929Z,195
2016-04-01T13:39:48.931Z,195
2016-04-01T13:40:49.090Z,190
2016-04-01T13:41:48.983Z,190
2016-04-01T13:42:49.017Z,190
2016-04-01T13:44:01.786Z,185
2016-04-01T13:44:49.053Z,185
2016-04-01T13:46:08.322Z,180
2016-04-01T13:46:55.636Z,180
2016-04-01T13:47:49.124Z,180
2016-04-01T13:48:49.220Z,180
2016-04-01T13:49:49.130Z,180
2016-04-01T13:50:49.148Z,180
2016-04-01T13:51:49.244Z,175
2016-04-01T13:52:49.216Z,175
2016-04-01T13:53:49.218Z,175
2016-04-01T13:54:49.237Z,175
2016-04-01T13:55:49.333Z,175
2016-04-01T13:57:07.899Z,175
2016-04-01T13:58:02.042Z,175
2016-04-01T13:58:49.482Z,175
2016-04-01T14:00:46.315Z,175
2016-04-01T14:01:18.099Z,175
2016-04-01T14:01:58.927Z,175
2016-04-01T14:02:58.898Z,175
2016-04-01T14:04:11.682Z,175
2016-04-01T14:04:58.967Z,175
2016-04-01T14:06:18.566Z,175
2016-04-01T14:06:59.004Z,175
2016-04-01T14:07:59.038Z,175
2016-04-01T14:08:59.056Z,175
2016-04-01T14:09:59.043Z,175
2016-04-01T14:10:59.139Z,175
2016-04-01T14:11:59.111Z,175
2016-04-01T14:12:59.175Z,175
2016-04-01T14:13:59.131Z,170
2016-04-01T14:15:11.822Z,170
2016-04-01T14:15:58.762Z,175
2016-04-01T14:16:59.203Z,175
2016-04-01T14:17:59.236Z,175